Time;durP1;ratioP1;P1;durP2;ratioP2;P2;SDS_P1;SDS_P2;PMS_P1;PMS_P2;Temp;Humidity;BMP_temperature;BMP_pressure;BME280_temperature;BME280_humidity;BME280_pressure;Samples;Min_cycle;Max_cycle;Signal;HPM_P1;HPM_P2
2021/12/14 00:00:46;;;;;;;3.05;2.00;;;;;;;;;;5004520;28;20514;-71
2021/12/14 00:03:14;;;;;;;2.05;1.60;;;;;;;;;;4997373;28;20022;-71
2021/12/14 00:05:40;;;;;;;2.47;1.70;;;;;;;;;;5012989;28;20422;-71
2021/12/14 00:08:08;;;;;;;3.40;1.80;;;;;;;;;;5013224;28;20049;-72
2021/12/14 00:13:12;;;;;;;4.47;1.95;;;;;;;;;;5013263;28;20034;-71
2021/12/14 00:15:38;;;;;;;4.38;2.08;;;;;;;;;;5013109;28;20026;-71
2021/12/14 00:18:07;;;;;;;3.58;1.75;;;;;;;;;;5013361;28;20114;-71
2021/12/14 00:20:37;;;;;;;2.53;1.40;;;;;;;;;;5011671;28;20029;-71
2021/12/14 00:25:31;;;;;;;3.00;1.90;;;;;;;;;;5007348;28;20463;-70
2021/12/14 00:27:59;;;;;;;2.83;1.60;;;;;;;;;;5002761;28;20038;-71
2021/12/14 00:30:25;;;;;;;2.13;1.80;;;;;;;;;;5002831;28;20225;-72
2021/12/14 00:32:51;;;;;;;3.33;1.98;;;;;;;;;;5004639;28;20029;-71
2021/12/14 00:35:20;;;;;;;2.17;1.70;;;;;;;;;;5001456;28;20026;-71
2021/12/14 00:37:48;;;;;;;2.92;1.92;;;;;;;;;;5001051;28;20422;-71
2021/12/14 00:40:16;;;;;;;3.53;2.30;;;;;;;;;;5000852;28;20017;-72
2021/12/14 00:42:42;;;;;;;4.28;2.28;;;;;;;;;;5002891;28;20022;-71
2021/12/14 00:45:09;;;;;;;3.10;1.70;;;;;;;;;;5000450;28;20093;-73
2021/12/14 00:47:35;;;;;;;4.07;2.20;;;;;;;;;;5001441;28;20674;-71
2021/12/14 00:50:01;;;;;;;4.03;2.00;;;;;;;;;;5002484;28;20037;-71
2021/12/14 00:52:27;;;;;;;2.08;1.40;;;;;;;;;;5000092;28;20296;-71
2021/12/14 00:54:53;;;;;;;3.10;2.20;;;;;;;;;;5003273;28;20022;-71
2021/12/14 00:57:19;;;;;;;2.05;1.48;;;;;;;;;;4999773;28;20052;-71
2021/12/14 00:59:45;;;;;;;3.10;1.77;;;;;;;;;;5003408;28;20030;-71
2021/12/14 01:02:16;;;;;;;2.83;1.65;;;;;;;;;;5003279;28;20034;-72
2021/12/14 01:04:44;;;;;;;2.50;1.70;;;;;;;;;;5000093;28;20017;-71
2021/12/14 01:07:11;;;;;;;2.28;1.67;;;;;;;;;;5000367;28;20068;-72
2021/12/14 01:09:38;;;;;;;2.92;2.10;;;;;;;;;;5002943;28;20096;-71
2021/12/14 01:12:09;;;;;;;2.13;1.35;;;;;;;;;;5000306;28;20057;-71
2021/12/14 01:14:42;;;;;;;2.73;1.83;;;;;;;;;;5002372;28;20030;-71
2021/12/14 01:17:39;;;;;;;2.55;1.65;;;;;;;;;;5006510;28;20022;-73
2021/12/14 01:20:07;;;;;;;2.58;1.80;;;;;;;;;;5004758;28;20030;-73
2021/12/14 01:22:42;;;;;;;2.10;1.63;;;;;;;;;;5001740;28;20071;-71
2021/12/14 01:25:15;;;;;;;2.50;1.50;;;;;;;;;;5002635;28;20498;-72
2021/12/14 01:27:50;;;;;;;2.60;1.95;;;;;;;;;;5002569;28;20041;-71
2021/12/14 01:30:19;;;;;;;2.90;1.80;;;;;;;;;;5000379;28;20583;-72
2021/12/14 01:32:47;;;;;;;4.45;2.03;;;;;;;;;;4999738;28;20037;-71
2021/12/14 01:35:15;;;;;;;2.60;1.63;;;;;;;;;;5000263;28;20021;-72
2021/12/14 01:37:47;;;;;;;2.05;1.35;;;;;;;;;;5001993;28;20584;-72
2021/12/14 01:40:29;;;;;;;;;;;;;;;;;;5000597;28;20077;-72
2021/12/14 01:42:55;;;;;;;3.05;1.50;;;;;;;;;;5001222;28;20390;-71
2021/12/14 01:45:23;;;;;;;2.05;1.35;;;;;;;;;;4998826;28;20387;-71
2021/12/14 01:47:51;;;;;;;1.73;1.40;;;;;;;;;;5000067;28;20374;-71
2021/12/14 01:50:22;;;;;;;2.35;1.60;;;;;;;;;;4999721;28;20022;-71
2021/12/14 01:52:48;;;;;;;2.88;1.60;;;;;;;;;;4999155;28;20106;-71
2021/12/14 01:55:19;;;;;;;2.17;1.50;;;;;;;;;;5001853;28;20026;-71
2021/12/14 01:57:45;;;;;;;1.80;1.20;;;;;;;;;;5012128;28;20046;-71
2021/12/14 02:00:20;;;;;;;2.30;1.83;;;;;;;;;;5010853;28;20403;-72
2021/12/14 02:02:47;;;;;;;1.83;1.30;;;;;;;;;;5012085;28;20073;-71
2021/12/14 02:05:21;;;;;;;2.15;1.60;;;;;;;;;;5010700;28;20383;-71
2021/12/14 02:07:48;;;;;;;1.90;1.50;;;;;;;;;;5011689;28;20033;-71
2021/12/14 02:10:31;;;;;;;1.90;1.20;;;;;;;;;;5011174;28;20037;-71
2021/12/14 02:12:57;;;;;;;2.88;1.42;;;;;;;;;;5011866;28;20030;-71
2021/12/14 02:15:26;;;;;;;2.22;1.63;;;;;;;;;;5010751;28;20483;-71
2021/12/14 02:17:52;;;;;;;2.05;1.38;;;;;;;;;;5011712;28;20029;-71
2021/12/14 02:20:22;;;;;;;2.33;1.52;;;;;;;;;;5011200;28;20026;-71
2021/12/14 02:22:48;;;;;;;1.63;1.40;;;;;;;;;;5011412;28;20029;-71
2021/12/14 02:25:14;;;;;;;1.95;1.52;;;;;;;;;;5010184;28;20026;-71
2021/12/14 02:27:42;;;;;;;2.05;1.33;;;;;;;;;;5011520;28;20038;-71
2021/12/14 02:30:10;;;;;;;2.05;1.33;;;;;;;;;;5011041;28;20022;-72
2021/12/14 02:32:36;;;;;;;1.58;1.25;;;;;;;;;;5010951;28;20109;-72
2021/12/14 02:35:05;;;;;;;2.45;1.30;;;;;;;;;;5010807;28;20072;-71
2021/12/14 02:37:45;;;;;;;1.80;1.42;;;;;;;;;;5011244;28;20466;-71
2021/12/14 02:40:19;;;;;;;2.75;1.60;;;;;;;;;;5010835;28;20021;-72
2021/12/14 02:42:47;;;;;;;1.58;1.27;;;;;;;;;;5011651;28;20018;-71
2021/12/14 02:45:13;;;;;;;1.65;1.30;;;;;;;;;;5013795;28;20080;-72
2021/12/14 02:47:39;;;;;;;2.22;1.30;;;;;;;;;;4995974;28;20104;-72
2021/12/14 02:50:05;;;;;;;3.20;1.67;;;;;;;;;;4995453;28;20113;-71
2021/12/14 02:52:35;;;;;;;1.60;1.20;;;;;;;;;;4994593;28;20027;-71
2021/12/14 02:55:22;;;;;;;1.42;1.05;;;;;;;;;;5005033;28;20022;-71
2021/12/14 02:57:50;;;;;;;2.75;1.50;;;;;;;;;;5014585;28;20140;-71
2021/12/14 03:00:24;;;;;;;2.15;1.30;;;;;;;;;;5014190;28;20033;-71
2021/12/14 03:02:50;;;;;;;2.22;1.23;;;;;;;;;;5014911;28;20029;-71
2021/12/14 03:05:17;;;;;;;1.73;1.42;;;;;;;;;;5014037;28;20045;-71
2021/12/14 03:07:48;;;;;;;1.83;1.17;;;;;;;;;;5014563;28;20026;-72
2021/12/14 03:12:58;;;;;;;2.90;2.03;;;;;;;;;;5014783;28;20061;-71
2021/12/14 03:15:34;;;;;;;2.88;1.63;;;;;;;;;;5013683;28;20028;-71
2021/12/14 03:18:01;;;;;;;1.90;1.27;;;;;;;;;;5014468;28;20026;-71
2021/12/14 03:20:27;;;;;;;2.40;1.15;;;;;;;;;;5013938;28;20223;-71
2021/12/14 03:23:05;;;;;;;1.95;1.48;;;;;;;;;;5014303;28;20387;-71
2021/12/14 03:25:33;;;;;;;1.73;1.40;;;;;;;;;;5013437;28;20356;-71
2021/12/14 03:27:59;;;;;;;1.55;1.42;;;;;;;;;;5014376;28;20707;-71
2021/12/14 03:30:29;;;;;;;1.35;1.20;;;;;;;;;;5012870;28;20360;-71
2021/12/14 03:32:58;;;;;;;1.92;1.33;;;;;;;;;;5025676;28;20022;-71
2021/12/14 03:35:36;;;;;;;2.95;1.30;;;;;;;;;;5013380;28;20073;-71
2021/12/14 03:38:19;;;;;;;2.33;1.08;;;;;;;;;;5014088;28;20060;-71
2021/12/14 03:40:53;;;;;;;1.15;0.98;;;;;;;;;;5001323;28;20030;-71
2021/12/14 03:43:19;;;;;;;1.50;1.13;;;;;;;;;;5013720;28;20026;-71
2021/12/14 03:45:45;;;;;;;2.00;1.50;;;;;;;;;;5013772;28;20022;-72
2021/12/14 03:48:11;;;;;;;2.22;1.42;;;;;;;;;;5013244;28;20042;-73
2021/12/14 03:50:42;;;;;;;1.20;1.08;;;;;;;;;;5013760;28;20045;-71
2021/12/14 03:53:09;;;;;;;1.45;1.20;;;;;;;;;;5013855;28;20022;-71
2021/12/14 03:55:38;;;;;;;1.70;1.45;;;;;;;;;;5012498;28;20034;-71
2021/12/14 03:58:08;;;;;;;1.50;1.10;;;;;;;;;;5013656;28;20039;-71
2021/12/14 04:00:38;;;;;;;1.45;1.25;;;;;;;;;;5013207;28;20062;-71
2021/12/14 04:03:06;;;;;;;2.05;1.17;;;;;;;;;;5013811;28;20073;-71
2021/12/14 04:05:35;;;;;;;1.83;1.10;;;;;;;;;;5012956;28;20601;-71
2021/12/14 04:08:01;;;;;;;2.08;1.30;;;;;;;;;;5013582;28;20080;-71
2021/12/14 04:10:29;;;;;;;2.00;1.00;;;;;;;;;;5012652;28;20033;-71
2021/12/14 04:12:56;;;;;;;2.67;1.27;;;;;;;;;;5013553;28;20037;-71
2021/12/14 04:15:23;;;;;;;1.65;1.30;;;;;;;;;;5012805;28;20018;-71
2021/12/14 04:17:49;;;;;;;1.60;1.23;;;;;;;;;;5013480;28;20028;-71
2021/12/14 04:20:15;;;;;;;1.98;1.20;;;;;;;;;;5012593;28;20040;-72
2021/12/14 04:22:48;;;;;;;1.75;1.02;;;;;;;;;;5012943;28;20041;-71
2021/12/14 04:25:14;;;;;;;1.55;1.20;;;;;;;;;;5012232;28;20113;-73
2021/12/14 04:27:40;;;;;;;2.67;1.30;;;;;;;;;;5013569;28;20079;-71
2021/12/14 04:30:10;;;;;;;1.63;1.38;;;;;;;;;;5013133;28;20129;-71
2021/12/14 04:32:36;;;;;;;2.05;1.52;;;;;;;;;;5012742;28;20025;-71
2021/12/14 04:35:03;;;;;;;3.45;1.40;;;;;;;;;;5013162;28;20132;-71
2021/12/14 04:37:30;;;;;;;1.50;1.00;;;;;;;;;;5012304;28;20068;-70
2021/12/14 04:54:02;;;;;;;1.63;1.00;;;;;;;;;;4998472;28;20040;-72
2021/12/14 04:56:32;;;;;;;1.73;1.33;;;;;;;;;;5011524;28;20054;-72
2021/12/14 04:59:01;;;;;;;1.30;0.93;;;;;;;;;;5012685;28;20061;-71
2021/12/14 05:01:28;;;;;;;1.15;1.00;;;;;;;;;;5011963;28;20084;-71
2021/12/14 05:03:58;;;;;;;1.73;1.20;;;;;;;;;;5012704;28;20072;-71
2021/12/14 05:06:32;;;;;;;1.48;1.10;;;;;;;;;;5011071;28;20375;-71
2021/12/14 05:09:22;;;;;;;2.50;1.20;;;;;;;;;;5012498;28;20121;-71
2021/12/14 05:11:49;;;;;;;1.52;1.33;;;;;;;;;;5011045;28;20080;-71
2021/12/14 05:14:15;;;;;;;1.40;1.00;;;;;;;;;;5000577;28;20109;-71
2021/12/14 05:16:41;;;;;;;2.05;1.27;;;;;;;;;;5001275;28;20022;-72
2021/12/14 05:19:09;;;;;;;1.45;1.20;;;;;;;;;;5000813;28;20081;-71
2021/12/14 05:21:59;;;;;;;1.05;0.95;;;;;;;;;;4998963;28;20026;-71
2021/12/14 05:24:26;;;;;;;1.13;0.85;;;;;;;;;;5004723;28;20375;-70
2021/12/14 05:27:00;;;;;;;1.02;0.90;;;;;;;;;;5001056;28;20025;-67
2021/12/14 05:29:27;;;;;;;2.45;1.40;;;;;;;;;;4999533;28;20026;-67
2021/12/14 05:31:55;;;;;;;1.90;1.20;;;;;;;;;;5000949;28;20076;-67
2021/12/14 05:34:22;;;;;;;2.55;1.65;;;;;;;;;;5001333;28;20022;-68
2021/12/14 05:36:48;;;;;;;1.45;1.20;;;;;;;;;;5000430;28;20026;-65
2021/12/14 05:44:14;;;;;;;1.20;0.80;;;;;;;;;;5000967;28;20426;-72
2021/12/14 05:46:40;;;;;;;2.42;1.30;;;;;;;;;;4999514;28;20026;-71
2021/12/14 05:49:08;;;;;;;1.60;1.02;;;;;;;;;;5003921;28;20037;-71
2021/12/14 05:51:35;;;;;;;1.63;1.00;;;;;;;;;;5002990;28;20101;-72
2021/12/14 05:54:03;;;;;;;1.30;1.20;;;;;;;;;;4999743;28;20022;-71
2021/12/14 05:56:30;;;;;;;1.23;1.00;;;;;;;;;;4999953;28;20048;-71
2021/12/14 05:58:57;;;;;;;1.83;1.20;;;;;;;;;;4999582;28;20030;-71
2021/12/14 06:01:25;;;;;;;1.10;0.90;;;;;;;;;;4991499;28;20117;-71
2021/12/14 06:03:51;;;;;;;1.55;1.20;;;;;;;;;;5004378;28;20026;-74
2021/12/14 06:06:29;;;;;;;4.88;1.08;;;;;;;;;;5009787;28;20471;-71
2021/12/14 06:09:05;;;;;;;2.25;0.95;;;;;;;;;;5011880;28;20030;-68
2021/12/14 06:11:31;;;;;;;2.28;1.45;;;;;;;;;;4998602;28;20415;-67
2021/12/14 06:13:57;;;;;;;2.35;1.38;;;;;;;;;;4992100;28;20173;-67
2021/12/14 06:16:26;;;;;;;2.33;1.40;;;;;;;;;;4991398;28;20026;-67
2021/12/14 06:18:52;;;;;;;2.60;1.10;;;;;;;;;;5004684;28;20034;-67
2021/12/14 06:21:28;;;;;;;1.48;1.00;;;;;;;;;;5015369;28;20212;-68
2021/12/14 06:24:00;;;;;;;1.48;1.17;;;;;;;;;;5015839;28;20045;-68
2021/12/14 06:26:52;;;;;;;5.97;1.77;;;;;;;;;;5014790;28;20210;-67
2021/12/14 06:29:26;;;;;;;2.95;1.10;;;;;;;;;;5013920;28;20434;-71
2021/12/14 06:31:54;;;;;;;1.77;0.90;;;;;;;;;;5015931;28;20379;-66
2021/12/14 06:34:25;;;;;;;2.28;1.05;;;;;;;;;;5015029;28;20080;-71
2021/12/14 06:37:15;;;;;;;4.30;0.98;;;;;;;;;;5014954;28;20033;-71
2021/12/14 06:40:16;;;;;;;5.20;1.45;;;;;;;;;;5010119;28;20030;-73
2021/12/14 06:42:45;;;;;;;5.70;2.07;;;;;;;;;;4959506;28;20027;-72
2021/12/14 06:45:16;;;;;;;5.75;3.55;;;;;;;;;;5007848;28;20038;-71
2021/12/14 06:47:45;;;;;;;28.00;10.77;;;;;;;;;;5014368;28;20109;-70
2021/12/14 06:50:13;;;;;;;29.50;10.00;;;;;;;;;;5014871;28;20042;-70
2021/12/14 06:52:40;;;;;;;22.40;10.00;;;;;;;;;;5014242;28;20021;-68
2021/12/14 06:55:06;;;;;;;26.05;10.63;;;;;;;;;;5014930;28;20084;-65
2021/12/14 06:57:33;;;;;;;21.90;9.73;;;;;;;;;;5014193;28;20050;-64
2021/12/14 07:00:00;;;;;;;20.08;8.68;;;;;;;;;;5014917;28;20034;-64
2021/12/14 07:02:27;;;;;;;23.30;9.82;;;;;;;;;;5013874;28;20026;-71
2021/12/14 07:04:53;;;;;;;23.88;9.88;;;;;;;;;;5014865;28;20097;-70
2021/12/14 07:07:24;;;;;;;31.15;10.93;;;;;;;;;;5014572;28;20037;-71
2021/12/14 07:09:52;;;;;;;43.80;16.35;;;;;;;;;;5010683;28;20093;-60
2021/12/14 07:12:20;;;;;;;44.05;16.33;;;;;;;;;;5005931;28;20077;-72
2021/12/14 07:14:46;;;;;;;46.50;15.60;;;;;;;;;;4994549;28;20054;-75
2021/12/14 07:17:12;;;;;;;41.22;15.05;;;;;;;;;;4994532;28;20444;-72
2021/12/14 07:19:40;;;;;;;40.10;15.10;;;;;;;;;;5009846;28;20025;-71
2021/12/14 07:22:06;;;;;;;35.10;14.15;;;;;;;;;;5013736;28;20509;-71
2021/12/14 07:24:34;;;;;;;31.02;13.98;;;;;;;;;;5013256;28;20416;-71
2021/12/14 07:27:16;;;;;;;33.75;13.57;;;;;;;;;;5013837;28;20065;-71
2021/12/14 07:29:42;;;;;;;37.60;11.87;;;;;;;;;;5012208;28;20042;-70
2021/12/14 07:32:08;;;;;;;31.55;11.23;;;;;;;;;;5013515;28;20033;-70
2021/12/14 07:34:34;;;;;;;31.95;11.40;;;;;;;;;;5013510;28;20022;-70
2021/12/14 07:37:00;;;;;;;34.83;11.23;;;;;;;;;;5014266;28;20045;-70
2021/12/14 07:39:26;;;;;;;29.55;11.65;;;;;;;;;;5013255;28;20395;-70
2021/12/14 07:41:58;;;;;;;27.83;10.63;;;;;;;;;;4998646;28;20026;-70
2021/12/14 07:44:24;;;;;;;;;;;;;;;;;;4996071;28;20066;-70
2021/12/14 07:46:59;;;;;;;27.67;9.25;;;;;;;;;;5011817;28;19999;-71
2021/12/14 07:49:26;;;;;;;21.80;10.23;;;;;;;;;;5014292;28;20581;-71
2021/12/14 07:52:02;;;;;;;22.42;8.60;;;;;;;;;;5013707;28;20080;-71
2021/12/14 07:54:34;;;;;;;22.20;9.00;;;;;;;;;;5013008;28;20022;-70
2021/12/14 07:57:02;;;;;;;24.33;9.53;;;;;;;;;;5013272;28;20392;-71
2021/12/14 07:59:30;;;;;;;22.77;8.55;;;;;;;;;;5012683;28;20272;-70
2021/12/14 08:02:13;;;;;;;21.10;8.02;;;;;;;;;;5013579;28;20037;-71
2021/12/14 08:04:41;;;;;;;19.60;8.18;;;;;;;;;;5012290;28;20034;-71
2021/12/14 08:07:07;;;;;;;23.63;7.80;;;;;;;;;;5010747;28;20403;-70
2021/12/14 08:09:47;;;;;;;15.80;7.13;;;;;;;;;;5012223;28;20477;-69
2021/12/14 08:12:27;;;;;;;20.38;7.50;;;;;;;;;;5013520;28;20032;-70
2021/12/14 08:15:06;;;;;;;18.77;7.38;;;;;;;;;;5013090;28;20026;-71
2021/12/14 08:17:32;;;;;;;18.50;7.75;;;;;;;;;;5006665;28;21437;-70
2021/12/14 08:19:58;;;;;;;17.85;7.93;;;;;;;;;;5012155;28;20030;-70
2021/12/14 08:22:27;;;;;;;16.85;6.90;;;;;;;;;;5005651;28;20022;-70
2021/12/14 08:24:54;;;;;;;17.58;6.45;;;;;;;;;;5008227;28;20100;-70
2021/12/14 08:27:21;;;;;;;19.42;7.00;;;;;;;;;;5013365;28;20344;-71
2021/12/14 08:29:49;;;;;;;14.80;5.95;;;;;;;;;;5012064;28;20034;-70
2021/12/14 08:32:20;;;;;;;18.23;7.20;;;;;;;;;;5012359;28;20021;-70
2021/12/14 08:34:46;;;;;;;15.40;6.97;;;;;;;;;;5007651;28;20653;-71
2021/12/14 08:37:14;;;;;;;14.55;6.10;;;;;;;;;;5012841;28;20117;-71
2021/12/14 08:39:41;;;;;;;21.58;7.63;;;;;;;;;;5012336;28;20030;-71
2021/12/14 08:42:18;;;;;;;17.05;7.30;;;;;;;;;;5011797;28;20088;-70
2021/12/14 08:44:51;;;;;;;14.35;5.57;;;;;;;;;;5011741;28;20418;-71
2021/12/14 08:47:23;;;;;;;15.85;6.40;;;;;;;;;;5012327;28;20065;-70
2021/12/14 08:49:49;;;;;;;;;;;;;;;;;;5011726;28;20107;-71
2021/12/14 08:52:15;;;;;;;11.60;4.82;;;;;;;;;;5012554;28;20355;-70
2021/12/14 08:54:42;;;;;;;13.27;5.28;;;;;;;;;;5011522;28;20467;-71
2021/12/14 08:57:11;;;;;;;15.07;6.30;;;;;;;;;;5012059;28;20406;-71
2021/12/14 08:59:38;;;;;;;12.43;5.22;;;;;;;;;;5011937;28;20037;-71
2021/12/14 09:02:08;;;;;;;14.82;4.90;;;;;;;;;;5012219;28;20026;-71
2021/12/14 09:04:39;;;;;;;17.35;6.03;;;;;;;;;;5011430;28;20045;-70
2021/12/14 09:07:14;;;;;;;11.60;5.60;;;;;;;;;;5012263;28;20055;-71
2021/12/14 09:09:41;;;;;;;13.20;5.72;;;;;;;;;;5011416;28;20034;-71
2021/12/14 09:12:09;;;;;;;11.30;4.85;;;;;;;;;;5011959;28;20490;-71
2021/12/14 09:14:36;;;;;;;13.20;4.85;;;;;;;;;;5011040;28;20411;-70
2021/12/14 09:17:03;;;;;;;11.48;5.05;;;;;;;;;;5010193;28;20025;-71
2021/12/14 09:19:35;;;;;;;9.93;4.15;;;;;;;;;;5010875;28;20033;-70
2021/12/14 09:22:03;;;;;;;10.57;4.72;;;;;;;;;;5012191;28;20459;-71
2021/12/14 09:24:30;;;;;;;13.98;5.10;;;;;;;;;;5011626;28;20034;-70
2021/12/14 09:26:59;;;;;;;9.55;4.80;;;;;;;;;;5012058;28;20054;-70
2021/12/14 09:29:26;;;;;;;10.98;4.35;;;;;;;;;;5004765;28;20034;-70
2021/12/14 09:31:53;;;;;;;10.68;4.50;;;;;;;;;;4991615;28;20137;-70
2021/12/14 09:34:22;;;;;;;7.25;4.07;;;;;;;;;;5004208;28;20033;-70
2021/12/14 09:36:50;;;;;;;10.18;4.15;;;;;;;;;;5011324;28;20044;-70
2021/12/14 09:39:21;;;;;;;9.65;3.90;;;;;;;;;;5011990;28;20034;-70
2021/12/14 09:41:53;;;;;;;6.83;4.13;;;;;;;;;;5011239;28;20032;-71
2021/12/14 09:44:20;;;;;;;8.13;3.92;;;;;;;;;;5009828;28;20026;-70
2021/12/14 09:46:46;;;;;;;7.43;3.65;;;;;;;;;;5009856;28;20475;-71
2021/12/14 09:49:13;;;;;;;8.32;4.10;;;;;;;;;;5009711;28;20038;-70
2021/12/14 09:51:44;;;;;;;6.75;3.63;;;;;;;;;;5010766;28;20034;-71
2021/12/14 09:54:12;;;;;;;8.57;4.32;;;;;;;;;;5017333;28;20493;-70
2021/12/14 09:56:41;;;;;;;8.05;3.30;;;;;;;;;;5016863;28;20482;-70
2021/12/14 09:59:09;;;;;;;6.65;3.22;;;;;;;;;;5018423;28;20381;-71
2021/12/14 10:01:38;;;;;;;6.32;3.55;;;;;;;;;;5017479;28;20027;-71
2021/12/14 10:04:06;;;;;;;5.80;3.40;;;;;;;;;;5016747;28;20525;-71
2021/12/14 10:06:33;;;;;;;7.88;3.78;;;;;;;;;;5015361;28;20034;-70
2021/12/14 10:09:03;;;;;;;7.38;3.42;;;;;;;;;;5018111;28;20034;-70
2021/12/14 10:14:30;;;;;;;8.45;3.83;;;;;;;;;;5009276;28;20117;-75
2021/12/14 10:16:56;;;;;;;6.28;3.20;;;;;;;;;;5016692;28;20133;-74
2021/12/14 10:19:26;;;;;;;7.03;3.13;;;;;;;;;;5014169;28;20038;-77
2021/12/14 10:21:55;;;;;;;9.05;2.80;;;;;;;;;;4999771;28;20059;-78
2021/12/14 10:24:21;;;;;;;5.85;3.13;;;;;;;;;;4998875;28;20030;-70
2021/12/14 10:26:52;;;;;;;6.00;3.15;;;;;;;;;;4997569;28;20036;-70
2021/12/14 10:29:18;;;;;;;7.30;3.35;;;;;;;;;;4998461;28;20077;-70
2021/12/14 10:31:48;;;;;;;5.55;2.70;;;;;;;;;;4997385;28;20524;-70
2021/12/14 10:34:18;;;;;;;6.03;3.00;;;;;;;;;;5005171;28;20080;-70
2021/12/14 10:36:46;;;;;;;5.97;3.00;;;;;;;;;;5003086;28;20101;-70
2021/12/14 10:39:36;;;;;;;5.15;2.70;;;;;;;;;;4998257;28;20411;-71
2021/12/14 10:44:51;;;;;;;5.95;2.50;;;;;;;;;;5003810;28;20033;-70
2021/12/14 10:47:18;;;;;;;6.82;2.78;;;;;;;;;;5018285;28;20022;-70
2021/12/14 10:49:45;;;;;;;4.93;2.45;;;;;;;;;;5016947;28;20049;-71
2021/12/14 10:52:14;;;;;;;4.03;2.05;;;;;;;;;;5017856;28;20112;-71
2021/12/14 10:54:42;;;;;;;4.72;2.22;;;;;;;;;;5015741;28;20485;-70
2021/12/14 10:57:11;;;;;;;4.38;2.40;;;;;;;;;;5017666;28;20058;-71
2021/12/14 10:59:40;;;;;;;4.85;2.25;;;;;;;;;;5017017;28;20038;-72
2021/12/14 11:02:06;;;;;;;4.63;2.60;;;;;;;;;;5000120;28;20034;-70
2021/12/14 11:04:38;;;;;;;5.57;3.22;;;;;;;;;;4995325;28;20022;-70
2021/12/14 11:07:07;;;;;;;4.53;2.42;;;;;;;;;;5007069;28;20437;-71
2021/12/14 11:09:45;;;;;;;4.72;2.55;;;;;;;;;;5014210;28;20407;-71
2021/12/14 11:12:16;;;;;;;4.18;2.45;;;;;;;;;;5011983;28;20080;-70
2021/12/14 11:14:44;;;;;;;5.15;2.42;;;;;;;;;;5010242;28;20031;-70
2021/12/14 11:19:59;;;;;;;4.45;2.53;;;;;;;;;;4994253;28;20086;-72
2021/12/14 11:22:30;;;;;;;9.63;3.03;;;;;;;;;;4995095;28;20349;-71
2021/12/14 11:25:08;;;;;;;4.05;2.50;;;;;;;;;;5010551;28;20169;-69
2021/12/14 11:27:36;;;;;;;5.43;2.88;;;;;;;;;;5013210;28;20136;-70
2021/12/14 11:30:09;;;;;;;4.28;2.58;;;;;;;;;;5014578;28;20038;-68
2021/12/14 11:32:35;;;;;;;4.13;2.45;;;;;;;;;;5013858;28;20076;-70
2021/12/14 11:35:03;;;;;;;7.00;2.80;;;;;;;;;;5014119;28;20076;-69
2021/12/14 11:37:34;;;;;;;8.77;2.78;;;;;;;;;;5014110;28;20451;-69
2021/12/14 11:40:02;;;;;;;5.78;2.75;;;;;;;;;;5012248;28;20037;-69
2021/12/14 11:42:28;;;;;;;5.95;2.70;;;;;;;;;;5013152;28;20068;-63
2021/12/14 11:45:00;;;;;;;7.00;2.85;;;;;;;;;;5013378;28;20034;-67
2021/12/14 11:50:00;;;;;;;6.45;2.47;;;;;;;;;;5008681;28;20176;-66
2021/12/14 11:52:50;;;;;;;6.05;2.42;;;;;;;;;;5014011;28;20406;-67
2021/12/14 11:55:16;;;;;;;3.95;2.03;;;;;;;;;;5013441;28;20030;-72
2021/12/14 11:57:44;;;;;;;8.38;2.13;;;;;;;;;;5013181;28;20422;-72
2021/12/14 12:00:13;;;;;;;4.63;2.03;;;;;;;;;;5014304;28;20030;-71
2021/12/14 12:02:39;;;;;;;4.90;2.25;;;;;;;;;;4993438;28;20041;-69
2021/12/14 12:05:20;;;;;;;4.75;2.60;;;;;;;;;;5002075;28;20370;-68
2021/12/14 12:10:42;;;;;;;4.72;2.40;;;;;;;;;;4975991;28;20066;-69
2021/12/14 12:13:09;;;;;;;6.60;1.90;;;;;;;;;;5013384;28;20034;-70
2021/12/14 12:15:38;;;;;;;4.07;2.20;;;;;;;;;;5012789;28;20030;-68
2021/12/14 12:18:05;;;;;;;3.55;2.72;;;;;;;;;;5013395;28;20026;-69
2021/12/14 12:20:32;;;;;;;5.53;1.95;;;;;;;;;;5013134;28;20030;-67
2021/12/14 12:23:00;;;;;;;4.68;2.53;;;;;;;;;;5012613;28;20102;-70
2021/12/14 12:25:29;;;;;;;3.00;1.90;;;;;;;;;;5000865;28;20054;-69
2021/12/14 12:27:58;;;;;;;5.40;2.53;;;;;;;;;;4992637;28;20210;-66
2021/12/14 12:30:38;;;;;;;7.72;2.72;;;;;;;;;;4993348;28;20042;-65
2021/12/14 12:33:10;;;;;;;4.97;1.77;;;;;;;;;;4996271;28;20464;-67
2021/12/14 12:35:40;;;;;;;3.25;1.80;;;;;;;;;;5011795;28;20030;-70
2021/12/14 12:38:35;;;;;;;4.97;2.08;;;;;;;;;;5013031;28;20030;-73
2021/12/14 12:41:01;;;;;;;5.40;1.95;;;;;;;;;;5007983;28;20054;-66
2021/12/14 12:43:30;;;;;;;3.42;1.90;;;;;;;;;;5012734;28;20053;-68
2021/12/14 12:46:16;;;;;;;6.22;1.98;;;;;;;;;;5011626;28;20024;-69
2021/12/14 12:49:00;;;;;;;2.88;1.58;;;;;;;;;;5011271;28;20034;-78
2021/12/14 12:51:41;;;;;;;3.30;1.50;;;;;;;;;;5011826;28;20030;-76
2021/12/14 12:54:17;;;;;;;7.10;2.05;;;;;;;;;;5012838;28;20026;-67
2021/12/14 12:56:45;;;;;;;4.55;2.30;;;;;;;;;;5011705;28;20053;-68
2021/12/14 12:59:12;;;;;;;3.67;1.77;;;;;;;;;;5012316;28;20034;-67
2021/12/14 13:01:38;;;;;;;4.60;2.17;;;;;;;;;;5012473;28;20071;-68
2021/12/14 13:04:04;;;;;;;4.45;2.20;;;;;;;;;;5012292;28;20033;-68
2021/12/14 13:06:31;;;;;;;3.28;2.13;;;;;;;;;;5008083;28;20025;-68
2021/12/14 13:08:58;;;;;;;3.40;2.15;;;;;;;;;;5004918;28;20052;-68
2021/12/14 13:11:27;;;;;;;2.17;1.50;;;;;;;;;;5012255;28;20030;-68
2021/12/14 13:13:58;;;;;;;4.43;2.15;;;;;;;;;;5011708;28;20430;-68
2021/12/14 13:16:28;;;;;;;2.85;1.42;;;;;;;;;;5012358;28;20030;-69
2021/12/14 13:18:54;;;;;;;3.35;1.67;;;;;;;;;;5011561;28;20459;-68
2021/12/14 13:21:23;;;;;;;3.10;1.65;;;;;;;;;;5012168;28;20021;-68
2021/12/14 13:23:49;;;;;;;3.67;1.55;;;;;;;;;;5011489;28;20029;-68
2021/12/14 13:26:42;;;;;;;2.83;1.70;;;;;;;;;;5012131;28;20029;-68
2021/12/14 13:29:20;;;;;;;5.53;2.28;;;;;;;;;;5011216;28;20057;-68
2021/12/14 13:31:46;;;;;;;2.60;1.33;;;;;;;;;;5011643;28;20026;-68
2021/12/14 13:34:15;;;;;;;2.10;1.55;;;;;;;;;;5012218;28;20092;-68
2021/12/14 13:36:42;;;;;;;3.97;2.05;;;;;;;;;;5011480;28;20041;-69
2021/12/14 13:39:11;;;;;;;3.03;1.60;;;;;;;;;;5012028;28;20450;-68
2021/12/14 13:41:55;;;;;;;2.72;1.38;;;;;;;;;;5012238;28;20022;-68
2021/12/14 13:44:21;;;;;;;3.35;1.83;;;;;;;;;;5011636;28;20368;-67
2021/12/14 13:46:48;;;;;;;3.67;1.95;;;;;;;;;;5010433;28;20076;-68
2021/12/14 13:49:14;;;;;;;3.20;1.30;;;;;;;;;;5011234;28;20424;-68
2021/12/14 13:51:40;;;;;;;1.95;1.48;;;;;;;;;;5011572;28;20026;-68
2021/12/14 13:54:06;;;;;;;2.25;1.20;;;;;;;;;;5011434;28;20108;-68
2021/12/14 13:56:34;;;;;;;1.90;1.30;;;;;;;;;;5011808;28;20088;-68
2021/12/14 13:59:00;;;;;;;2.65;1.73;;;;;;;;;;5010999;28;20034;-68
2021/12/14 14:01:34;;;;;;;2.55;1.63;;;;;;;;;;5011854;28;20026;-68
2021/12/14 14:04:02;;;;;;;3.10;1.75;;;;;;;;;;5011119;28;20095;-68
2021/12/14 14:06:29;;;;;;;2.65;1.23;;;;;;;;;;4992040;28;20030;-68
2021/12/14 14:09:04;;;;;;;4.55;1.45;;;;;;;;;;4990841;28;20081;-68
2021/12/14 14:11:53;;;;;;;2.70;2.10;;;;;;;;;;4992156;28;20424;-68
2021/12/14 14:14:25;;;;;;;1.77;1.02;;;;;;;;;;4986988;28;20495;-68
2021/12/14 14:16:53;;;;;;;2.15;1.52;;;;;;;;;;5001749;28;20018;-68
2021/12/14 14:19:24;;;;;;;2.38;1.50;;;;;;;;;;4991880;28;20039;-68
2021/12/14 14:21:53;;;;;;;5.53;1.60;;;;;;;;;;5001943;28;20141;-69
2021/12/14 14:24:21;;;;;;;2.15;1.40;;;;;;;;;;5011517;28;20026;-69
2021/12/14 14:26:47;;;;;;;3.00;1.70;;;;;;;;;;5011281;28;20040;-68
2021/12/14 14:29:19;;;;;;;2.03;1.10;;;;;;;;;;5011219;28;20375;-68
2021/12/14 14:31:50;;;;;;;1.83;1.40;;;;;;;;;;5010834;28;20033;-68
2021/12/14 14:34:22;;;;;;;3.17;1.53;;;;;;;;;;5011739;28;20037;-68
2021/12/14 14:36:59;;;;;;;1.40;1.15;;;;;;;;;;5010586;28;20772;-68
2021/12/14 14:39:25;;;;;;;2.08;1.30;;;;;;;;;;5011647;28;20033;-68
2021/12/14 14:41:53;;;;;;;4.22;1.35;;;;;;;;;;5014243;28;20471;-68
2021/12/14 14:44:25;;;;;;;1.60;1.10;;;;;;;;;;5015268;28;20030;-69
2021/12/14 14:46:51;;;;;;;;;;;;;;;;;;5014798;28;20022;-66
2021/12/14 14:49:19;;;;;;;2.58;1.30;;;;;;;;;;5015052;28;19914;-67
2021/12/14 14:51:55;;;;;;;3.55;1.30;;;;;;;;;;5014529;28;20072;-65
2021/12/14 14:54:34;;;;;;;2.15;1.58;;;;;;;;;;5014668;28;20110;-66
2021/12/14 14:57:09;;;;;;;2.63;1.60;;;;;;;;;;5013936;28;20403;-66
2021/12/14 14:59:41;;;;;;;2.63;1.40;;;;;;;;;;5014472;28;20089;-67
2021/12/14 15:02:09;;;;;;;1.70;1.20;;;;;;;;;;5014237;28;20076;-66
2021/12/14 15:04:53;;;;;;;2.22;1.50;;;;;;;;;;5013930;28;20026;-66
2021/12/14 15:07:19;;;;;;;2.67;1.75;;;;;;;;;;5015066;28;20033;-67
2021/12/14 15:09:46;;;;;;;1.95;1.35;;;;;;;;;;5013793;28;20030;-66
2021/12/14 15:12:19;;;;;;;4.10;1.48;;;;;;;;;;5014428;28;20022;-62
2021/12/14 15:14:45;;;;;;;1.88;1.38;;;;;;;;;;5010334;28;20101;-61
2021/12/14 15:17:14;;;;;;;3.15;1.15;;;;;;;;;;5012114;28;20110;-61
2021/12/14 15:19:51;;;;;;;9.60;1.75;;;;;;;;;;5015403;28;20033;-62
2021/12/14 15:22:28;;;;;;;4.03;1.55;;;;;;;;;;5014850;28;20030;-61
2021/12/14 15:25:10;;;;;;;1.70;1.52;;;;;;;;;;5013625;28;20028;-62
2021/12/14 15:27:36;;;;;;;2.72;1.52;;;;;;;;;;5014476;28;20096;-64
2021/12/14 15:30:06;;;;;;;3.63;1.67;;;;;;;;;;5013619;28;20022;-71
2021/12/14 15:32:34;;;;;;;4.03;1.58;;;;;;;;;;5009296;28;20037;-61
2021/12/14 15:35:09;;;;;;;4.00;1.58;;;;;;;;;;4993909;28;20030;-68
2021/12/14 15:37:54;;;;;;;4.70;1.50;;;;;;;;;;4994386;28;20036;-73